If you wish to contribute or participate in the discussions about articles you are invited to join SKYbrary as a registered user

 Actions

Alcantarilla Airport

From SKYbrary Wiki

LERI
Airport
ICAO: LERI
Summary
Name Alcantarilla Airport
Region Europe
Territory Spain ES.gif
Location
Serving Murcia
Elevation 76.2 m
250 ft
250 ft76.2 m
Type medium airport
Coordinates 37° 57' 4.00" N, 1° 13' 49.15" W
Runways
Designator Length Width Surface ROPS
7/25 938 m3,077.428 ft
45 m147.638 ft
ASP /


METAR
Observation LERI 231244Z 26007KT 220V300 9999 SCT060 19/06 Q1008 NOSIG
Station Murcia / Alcantarilla
Date/Time 23 October 2019 12:44:00
Wind direction 260°
Wind speed 07 kts
Lowest cloud amount scattered clouds
Temperature 19°C
Dew point 6°C
Humidity 42%
QNH 1008 hPa
Weather condition n/a